Erval Velho, Brazil
Current Conditions -  °F | °C
As of 10:00 PM on Monday 24 Nov 2014 (Local Time) from SBCH Reporting Station
Few Clouds Few Clouds  
Wind Chill: 81°   Ceiling: Unl
Heat Index: 83°   Visibility: 6mi
Dew Point: 68°   Wind: 5mph
Humidity: 65%   Direction: 100°E
Pressure: 29.85"   Gusts: NA
Location:  27.26°S, 51.24°W
Report Text: SBCH 250000Z 10004KT 9999 FEW045 FEW050TCU 27/20 Q1011
Loading
Personal Weather Stations






























Interactive Weather Map New forecast layout! Learn more

10-Day Weather Forecast

Advertisements
Track Severe Weather on mobile